Time,TemperatureF,DewpointF,PressureIn,WindDirection,WindDirectionDegrees,WindSpeedMPH,WindSpeedGustMPH,Humidity,HourlyPrecipIn,Conditions,Clouds,dailyrainin,SolarRadiationWatts/m^2,SoftwareType,DateUTC
2013-02-02 00:21:00,49.0,26.0,-100.00,North,355,8.0,12.0,41,0.00,,,0.00,1.000000,,2013-02-02 08:21:00,
2013-02-02 00:31:00,49.0,26.0,-100.00,North,355,8.0,12.0,41,0.00,,,0.00,1.000000,,2013-02-02 08:31:00,
2013-02-02 00:41:00,49.0,26.0,-100.00,North,355,8.0,12.0,41,0.00,,,0.00,1.000000,,2013-02-02 08:41:00,
2013-02-02 00:52:00,49.0,26.0,-100.00,North,355,8.0,12.0,41,0.00,,,0.00,1.000000,,2013-02-02 08:52:00,
2013-02-02 01:22:00,49.0,26.0,-100.00,North,2,7.0,13.0,41,0.00,,,0.00,1.000000,,2013-02-02 09:22:00,
2013-02-02 01:31:00,49.0,26.0,-100.00,North,2,7.0,13.0,41,0.00,,,0.00,1.000000,,2013-02-02 09:31:00,
2013-02-02 01:41:00,49.0,26.0,-100.00,North,2,7.0,13.0,41,0.00,,,0.00,1.000000,,2013-02-02 09:41:00,
2013-02-02 01:52:00,49.0,26.0,-100.00,North,2,7.0,13.0,41,0.00,,,0.00,1.000000,,2013-02-02 09:52:00,
2013-02-02 02:21:00,49.0,26.0,-100.00,North,0,8.0,14.0,40,0.00,,,0.00,1.000000,,2013-02-02 10:21:00,
2013-02-02 02:31:00,49.0,26.0,-100.00,North,0,8.0,14.0,40,0.00,,,0.00,1.000000,,2013-02-02 10:31:00,
2013-02-02 02:41:00,49.0,26.0,-100.00,North,0,8.0,14.0,40,0.00,,,0.00,1.000000,,2013-02-02 10:41:00,
2013-02-02 02:51:00,49.0,26.0,-100.00,North,0,8.0,14.0,40,0.00,,,0.00,1.000000,,2013-02-02 10:51:00,
2013-02-02 03:21:00,48.0,26.0,-100.00,North,1,9.0,16.0,42,0.00,,,0.00,1.000000,,2013-02-02 11:21:00,
2013-02-02 03:31:00,48.0,26.0,-100.00,North,1,9.0,16.0,42,0.00,,,0.00,1.000000,,2013-02-02 11:31:00,
2013-02-02 03:41:00,48.0,26.0,-100.00,North,1,9.0,16.0,42,0.00,,,0.00,1.000000,,2013-02-02 11:41:00,
2013-02-02 03:52:00,48.0,26.0,-100.00,North,1,9.0,16.0,42,0.00,,,0.00,1.000000,,2013-02-02 11:52:00,
2013-02-02 04:22:00,48.0,26.0,-100.00,North,358,8.0,15.0,42,0.00,,,-99.99,1.000000,,2013-02-02 12:22:00,
2013-02-02 04:32:00,48.0,26.0,-100.00,North,358,8.0,15.0,42,0.00,,,-99.99,1.000000,,2013-02-02 12:32:00,
2013-02-02 04:42:00,48.0,26.0,-100.00,North,358,8.0,15.0,42,0.00,,,-99.99,1.000000,,2013-02-02 12:42:00,
2013-02-02 04:52:00,48.0,26.0,-100.00,North,358,8.0,15.0,42,0.00,,,-99.99,1.000000,,2013-02-02 12:52:00,
2013-02-02 05:21:00,47.0,26.0,-100.00,North,355,10.0,16.0,44,0.00,,,0.00,1.000000,,2013-02-02 13:21:00,
2013-02-02 05:32:00,47.0,26.0,-100.00,North,355,10.0,16.0,44,0.00,,,0.00,1.000000,,2013-02-02 13:32:00,
2013-02-02 05:42:00,47.0,26.0,-100.00,North,355,10.0,16.0,44,0.00,,,0.00,1.000000,,2013-02-02 13:42:00,
2013-02-02 05:51:00,47.0,26.0,-100.00,North,355,10.0,16.0,44,0.00,,,0.00,1.000000,,2013-02-02 13:51:00,
2013-02-02 06:22:00,47.0,27.0,-100.00,North,357,10.0,16.0,45,0.00,,,0.00,1.000000,,2013-02-02 14:22:00,
2013-02-02 06:32:00,47.0,27.0,-100.00,North,357,10.0,16.0,45,0.00,,,0.00,1.000000,,2013-02-02 14:32:00,
2013-02-02 06:42:00,47.0,27.0,-100.00,North,357,10.0,16.0,45,0.00,,,0.00,1.000000,,2013-02-02 14:42:00,
2013-02-02 06:52:00,47.0,27.0,-100.00,North,357,10.0,16.0,45,0.00,,,0.00,1.000000,,2013-02-02 14:52:00,
2013-02-02 07:21:00,47.0,27.0,-100.00,North,354,10.0,15.0,46,0.00,,,0.00,1.000000,,2013-02-02 15:21:00,
2013-02-02 07:32:00,47.0,27.0,-100.00,North,354,10.0,15.0,46,0.00,,,0.00,1.000000,,2013-02-02 15:32:00,
2013-02-02 07:42:00,47.0,27.0,-100.00,North,354,10.0,15.0,46,0.00,,,0.00,1.000000,,2013-02-02 15:42:00,
2013-02-02 07:52:00,47.0,27.0,-100.00,North,354,10.0,15.0,46,0.00,,,0.00,1.000000,,2013-02-02 15:52:00,
2013-02-02 08:22:00,47.0,28.0,-100.00,North,355,9.0,15.0,47,0.00,,,0.00,44.000000,,2013-02-02 16:22:00,
2013-02-02 08:31:00,47.0,28.0,-100.00,North,355,9.0,15.0,47,0.00,,,0.00,44.000000,,2013-02-02 16:31:00,
2013-02-02 08:42:00,47.0,28.0,-100.00,North,355,9.0,15.0,47,0.00,,,0.00,44.000000,,2013-02-02 16:42:00,
2013-02-02 08:51:00,47.0,28.0,-100.00,North,355,9.0,15.0,47,0.00,,,0.00,44.000000,,2013-02-02 16:51:00,
2013-02-02 09:22:00,49.0,29.0,-100.00,North,354,11.0,19.0,45,0.00,,,0.00,139.000000,,2013-02-02 17:22:00,
2013-02-02 09:32:00,49.0,29.0,-100.00,North,354,11.0,19.0,45,0.00,,,0.00,139.000000,,2013-02-02 17:32:00,
2013-02-02 09:41:00,49.0,29.0,-100.00,North,354,11.0,19.0,45,0.00,,,0.00,139.000000,,2013-02-02 17:41:00,
2013-02-02 09:52:00,49.0,29.0,-100.00,North,354,11.0,19.0,45,0.00,,,0.00,139.000000,,2013-02-02 17:52:00,
2013-02-02 10:22:00,50.0,29.0,-100.00,North,353,10.0,21.0,44,0.00,,,0.00,346.000000,,2013-02-02 18:22:00,
2013-02-02 10:31:00,50.0,29.0,-100.00,North,353,10.0,21.0,44,0.00,,,0.00,346.000000,,2013-02-02 18:31:00,
2013-02-02 10:42:00,50.0,29.0,-100.00,North,353,10.0,21.0,44,0.00,,,0.00,346.000000,,2013-02-02 18:42:00,
2013-02-02 10:52:00,50.0,29.0,-100.00,North,353,10.0,21.0,44,0.00,,,0.00,346.000000,,2013-02-02 18:52:00,
2013-02-02 11:21:00,51.0,29.0,-100.00,North,355,9.0,21.0,43,0.00,,,0.00,371.000000,,2013-02-02 19:21:00,
2013-02-02 11:32:00,51.0,29.0,-100.00,North,355,9.0,21.0,43,0.00,,,0.00,371.000000,,2013-02-02 19:32:00,
2013-02-02 11:42:00,51.0,29.0,-100.00,North,355,9.0,21.0,43,0.00,,,0.00,371.000000,,2013-02-02 19:42:00,
2013-02-02 11:51:00,51.0,29.0,-100.00,North,355,9.0,21.0,43,0.00,,,0.00,371.000000,,2013-02-02 19:51:00,
2013-02-02 12:21:00,52.0,29.0,-100.00,North,358,9.0,15.0,41,0.00,,,0.00,399.000000,,2013-02-02 20:21:00,
2013-02-02 12:32:00,52.0,29.0,-100.00,North,358,9.0,15.0,41,0.00,,,0.00,399.000000,,2013-02-02 20:32:00,
2013-02-02 12:41:00,52.0,29.0,-100.00,North,358,9.0,15.0,41,0.00,,,0.00,399.000000,,2013-02-02 20:41:00,
2013-02-02 12:52:00,52.0,29.0,-100.00,North,358,9.0,15.0,41,0.00,,,0.00,399.000000,,2013-02-02 20:52:00,
2013-02-02 13:21:00,52.0,29.0,-100.00,North,354,9.0,14.0,41,0.00,,,0.00,422.000000,,2013-02-02 21:21:00,
2013-02-02 13:32:00,52.0,29.0,-100.00,North,354,9.0,14.0,41,0.00,,,0.00,422.000000,,2013-02-02 21:32:00,
2013-02-02 13:42:00,52.0,29.0,-100.00,North,354,9.0,14.0,41,0.00,,,0.00,422.000000,,2013-02-02 21:42:00,
2013-02-02 13:51:00,52.0,29.0,-100.00,North,354,9.0,14.0,41,0.00,,,0.00,422.000000,,2013-02-02 21:51:00,
2013-02-02 14:32:00,51.0,28.0,-100.00,North,353,9.0,15.0,41,0.00,,,0.00,236.000000,,2013-02-02 22:32:00,
2013-02-02 14:42:00,51.0,28.0,-100.00,North,353,9.0,15.0,41,0.00,,,0.00,236.000000,,2013-02-02 22:42:00,
2013-02-02 14:52:00,51.0,28.0,-100.00,North,353,9.0,15.0,41,0.00,,,0.00,236.000000,,2013-02-02 22:52:00,
2013-02-02 15:32:00,51.0,28.0,-100.00,North,358,8.0,15.0,40,0.00,,,0.00,161.000000,,2013-02-02 23:32:00,
2013-02-02 15:41:00,51.0,28.0,-100.00,North,358,8.0,15.0,40,0.00,,,0.00,161.000000,,2013-02-02 23:41:00,
2013-02-02 15:52:00,51.0,28.0,-100.00,North,358,8.0,15.0,40,0.00,,,0.00,161.000000,,2013-02-02 23:52:00,
2013-02-02 16:21:00,51.0,28.0,-100.00,North,358,6.0,15.0,41,0.00,,,0.00,84.000000,,2013-02-03 00:21:00,
2013-02-02 16:31:00,51.0,28.0,-100.00,North,358,6.0,15.0,41,0.00,,,0.00,84.000000,,2013-02-03 00:31:00,
2013-02-02 16:41:00,51.0,28.0,-100.00,North,358,6.0,15.0,41,0.00,,,0.00,84.000000,,2013-02-03 00:41:00,
2013-02-02 16:51:00,51.0,28.0,-100.00,North,358,6.0,15.0,41,0.00,,,0.00,84.000000,,2013-02-03 00:51:00,
2013-02-02 17:32:00,50.0,27.0,-100.00,NNW,347,7.0,10.0,41,0.00,,,0.00,32.000000,,2013-02-03 01:32:00,
2013-02-02 17:41:00,50.0,27.0,-100.00,NNW,347,7.0,10.0,41,0.00,,,0.00,32.000000,,2013-02-03 01:41:00,
2013-02-02 17:51:00,50.0,27.0,-100.00,NNW,347,7.0,10.0,41,0.00,,,0.00,32.000000,,2013-02-03 01:51:00,
2013-02-02 18:31:00,51.0,26.0,-100.00,North,352,4.0,8.0,38,0.00,,,-99.99,2.000000,,2013-02-03 02:31:00,
2013-02-02 18:41:00,51.0,26.0,-100.00,North,352,4.0,8.0,38,0.00,,,-99.99,2.000000,,2013-02-03 02:41:00,
2013-02-02 18:52:00,51.0,26.0,-100.00,North,352,4.0,8.0,38,0.00,,,-99.99,2.000000,,2013-02-03 02:52:00,
2013-02-02 19:21:00,51.0,29.0,-100.00,NNE,23,3.0,14.0,43,0.00,,,0.00,1.000000,,2013-02-03 03:21:00,
2013-02-02 19:31:00,51.0,29.0,-100.00,NNE,23,3.0,14.0,43,0.00,,,0.00,1.000000,,2013-02-03 03:31:00,
2013-02-02 19:41:00,51.0,29.0,-100.00,NNE,23,3.0,14.0,43,0.00,,,0.00,1.000000,,2013-02-03 03:41:00,
2013-02-02 19:51:00,51.0,29.0,-100.00,NNE,23,3.0,14.0,43,0.00,,,0.00,1.000000,,2013-02-03 03:51:00,
2013-02-02 20:21:00,45.0,38.0,-100.00,North,350,6.0,7.0,77,0.02,,,0.02,1.000000,,2013-02-03 04:21:00,
2013-02-02 20:31:00,45.0,38.0,-100.00,North,350,6.0,7.0,77,0.02,,,0.02,1.000000,,2013-02-03 04:31:00,
2013-02-02 20:42:00,45.0,38.0,-100.00,North,350,6.0,7.0,77,0.02,,,0.02,1.000000,,2013-02-03 04:42:00,
2013-02-02 20:51:00,45.0,38.0,-100.00,North,350,6.0,7.0,77,0.02,,,0.02,1.000000,,2013-02-03 04:51:00,
2013-02-02 21:22:00,44.0,37.0,-100.00,North,353,5.0,7.0,77,0.01,,,0.03,1.000000,,2013-02-03 05:22:00,
2013-02-02 21:32:00,44.0,37.0,-100.00,North,353,5.0,7.0,77,0.01,,,0.03,1.000000,,2013-02-03 05:32:00,
2013-02-02 21:41:00,44.0,37.0,-100.00,North,353,5.0,7.0,77,0.01,,,0.03,1.000000,,2013-02-03 05:41:00,
2013-02-02 21:52:00,44.0,37.0,-100.00,North,353,5.0,7.0,77,0.01,,,0.03,1.000000,,2013-02-03 05:52:00,
2013-02-02 22:21:00,44.0,39.0,-100.00,North,352,6.0,8.0,83,0.02,,,0.05,1.000000,,2013-02-03 06:21:00,
2013-02-02 22:32:00,44.0,39.0,-100.00,North,352,6.0,8.0,83,0.02,,,0.05,1.000000,,2013-02-03 06:32:00,
2013-02-02 22:41:00,44.0,39.0,-100.00,North,352,6.0,8.0,83,0.02,,,0.05,1.000000,,2013-02-03 06:41:00,
2013-02-02 22:52:00,44.0,39.0,-100.00,North,352,6.0,8.0,83,0.02,,,0.05,1.000000,,2013-02-03 06:52:00,
2013-02-02 23:21:00,45.0,38.0,-100.00,NNW,348,7.0,10.0,76,0.00,,,0.05,1.000000,,2013-02-03 07:21:00,
2013-02-02 23:31:00,45.0,38.0,-100.00,NNW,348,7.0,10.0,76,0.00,,,0.05,1.000000,,2013-02-03 07:31:00,
2013-02-02 23:41:00,45.0,38.0,-100.00,NNW,348,7.0,10.0,76,0.00,,,0.05,1.000000,,2013-02-03 07:41:00,
2013-02-02 23:52:00,45.0,38.0,-100.00,NNW,348,7.0,10.0,76,0.00,,,0.05,1.000000,,2013-02-03 07:52:00,